Time;durP1;ratioP1;P1;durP2;ratioP2;P2;SDS_P1;SDS_P2;PMS_P1;PMS_P2;Temp;Humidity;BMP_temperature;BMP_pressure;BME280_temperature;BME280_humidity;BME280_pressure;Samples;Min_cycle;Max_cycle;Signal;HPM_P1;HPM_P2
2023/04/19 00:01:57;;;;;;;7.97;4.35;;;12.70;99.90;;;;;;7413639;19;19911;-79
2023/04/19 00:04:24;;;;;;;7.63;4.13;;;12.70;99.90;;;;;;7413131;19;19918;-80
2023/04/19 00:06:50;;;;;;;9.02;4.43;;;12.60;99.90;;;;;;7414420;19;19914;-80
2023/04/19 00:09:16;;;;;;;8.50;4.15;;;12.60;99.90;;;;;;7414269;19;19917;-80
2023/04/19 00:11:43;;;;;;;11.23;4.07;;;12.60;99.90;;;;;;7416099;19;19910;-79
2023/04/19 00:14:08;;;;;;;9.48;4.65;;;12.60;99.90;;;;;;7410185;19;19935;-80
2023/04/19 00:16:34;;;;;;;10.38;4.82;;;12.60;99.90;;;;;;7391183;19;19937;-79
2023/04/19 00:19:00;;;;;;;10.73;4.60;;;12.60;99.90;;;;;;7416485;19;20018;-78
2023/04/19 00:21:26;;;;;;;9.32;4.80;;;12.60;99.90;;;;;;7415311;19;19918;-79
2023/04/19 00:23:52;;;;;;;10.70;4.53;;;12.50;99.90;;;;;;7420322;19;19978;-80
2023/04/19 00:26:18;;;;;;;9.07;4.38;;;12.50;99.90;;;;;;7411544;19;19918;-80
2023/04/19 00:28:45;;;;;;;9.15;4.75;;;12.60;99.90;;;;;;7413950;19;19921;-79
2023/04/19 00:31:10;;;;;;;10.55;4.32;;;12.50;99.90;;;;;;7413948;19;19918;-79
2023/04/19 00:33:36;;;;;;;9.52;4.45;;;12.50;99.90;;;;;;7412422;19;19918;-79
2023/04/19 00:36:02;;;;;;;8.05;4.32;;;12.50;99.90;;;;;;7418398;19;20577;-79
2023/04/19 00:38:28;;;;;;;8.68;4.55;;;12.50;99.90;;;;;;7378038;19;19934;-79
2023/04/19 00:40:54;;;;;;;9.48;4.40;;;12.50;99.90;;;;;;7421548;19;19918;-79
2023/04/19 00:43:21;;;;;;;7.97;3.85;;;12.50;99.90;;;;;;7420065;19;19921;-80
2023/04/19 00:45:48;;;;;;;9.55;4.07;;;12.50;99.90;;;;;;7422550;19;19995;-79
2023/04/19 00:48:14;;;;;;;12.32;3.88;;;12.50;99.90;;;;;;7418310;19;19938;-80
2023/04/19 00:50:43;;;;;;;11.65;3.88;;;12.50;99.90;;;;;;7419580;19;19914;-79
2023/04/19 00:53:09;;;;;;;8.48;4.18;;;12.50;99.90;;;;;;7417204;19;19923;-79
2023/04/19 00:55:40;;;;;;;9.70;4.50;;;12.40;99.90;;;;;;7419967;19;19919;-79
2023/04/19 00:58:07;;;;;;;8.98;4.28;;;12.30;99.90;;;;;;7398797;19;19938;-81
2023/04/19 01:00:34;;;;;;;8.55;4.22;;;12.30;99.90;;;;;;7420464;19;19922;-80
2023/04/19 01:03:00;;;;;;;9.77;4.25;;;12.30;99.90;;;;;;7421160;19;19938;-80
2023/04/19 01:05:26;;;;;;;10.52;4.40;;;12.30;99.90;;;;;;7420091;19;19922;-80
2023/04/19 01:07:52;;;;;;;9.55;4.47;;;12.30;99.90;;;;;;7419479;19;19946;-80
2023/04/19 01:10:18;;;;;;;8.32;4.10;;;12.20;99.90;;;;;;7417777;19;19925;-79
2023/04/19 01:12:43;;;;;;;9.38;3.97;;;12.20;99.90;;;;;;7422024;19;19914;-79
2023/04/19 01:15:10;;;;;;;7.93;3.75;;;12.20;99.90;;;;;;7416048;19;20307;-79
2023/04/19 01:17:36;;;;;;;7.70;3.80;;;12.10;99.90;;;;;;7418732;19;19986;-79
2023/04/19 01:20:07;;;;;;;7.28;3.80;;;12.10;99.90;;;;;;7419480;19;20319;-79
2023/04/19 01:22:36;;;;;;;8.75;3.67;;;12.10;99.90;;;;;;7420428;19;19922;-79
2023/04/19 01:25:03;;;;;;;7.82;3.47;;;12.20;99.90;;;;;;7420470;19;19915;-78
2023/04/19 01:27:29;;;;;;;;;;;12.20;99.90;;;;;;7418622;19;19918;-78
2023/04/19 01:29:55;;;;;;;8.80;3.22;;;12.20;99.90;;;;;;7421411;19;19926;-80
2023/04/19 01:32:21;;;;;;;9.77;3.28;;;12.30;99.90;;;;;;7417296;19;20019;-80
2023/04/19 01:34:48;;;;;;;9.23;3.33;;;12.20;99.90;;;;;;7419369;19;19919;-80
2023/04/19 01:37:13;;;;;;;6.68;3.00;;;12.20;99.90;;;;;;7414862;19;19919;-79
2023/04/19 01:39:39;;;;;;;6.30;3.03;;;12.20;99.90;;;;;;7421543;19;19943;-79
2023/04/19 01:42:05;;;;;;;7.35;2.92;;;12.20;99.90;;;;;;7419929;19;19918;-81
2023/04/19 01:44:31;;;;;;;6.40;2.88;;;12.30;99.90;;;;;;7420385;19;19922;-80
2023/04/19 01:46:57;;;;;;;8.30;2.83;;;12.20;99.90;;;;;;7414373;19;19923;-80
2023/04/19 01:49:22;;;;;;;8.50;3.40;;;12.30;99.90;;;;;;7418561;19;20242;-80
2023/04/19 01:51:48;;;;;;;8.93;3.58;;;12.30;99.90;;;;;;7416362;19;19930;-80
2023/04/19 01:54:14;;;;;;;8.38;3.10;;;12.30;99.90;;;;;;7416840;19;19922;-79
2023/04/19 01:56:41;;;;;;;10.82;3.25;;;12.30;99.90;;;;;;7420189;19;19914;-79
2023/04/19 01:59:07;;;;;;;9.45;2.70;;;12.30;99.90;;;;;;7418431;19;19919;-80
2023/04/19 02:01:33;;;;;;;9.25;2.97;;;12.30;99.90;;;;;;7419312;19;19929;-80
2023/04/19 02:03:59;;;;;;;8.88;2.95;;;12.30;99.90;;;;;;7419983;19;19970;-79
2023/04/19 02:06:25;;;;;;;8.20;2.80;;;12.40;99.90;;;;;;7419362;19;19930;-80
2023/04/19 02:08:51;;;;;;;10.35;2.50;;;12.40;99.90;;;;;;7423010;19;19918;-80
2023/04/19 02:11:17;;;;;;;7.70;2.70;;;12.50;99.90;;;;;;7421606;19;19926;-80
2023/04/19 02:13:43;;;;;;;6.63;2.55;;;12.50;99.90;;;;;;7421845;19;19940;-80
2023/04/19 02:16:09;;;;;;;7.05;2.25;;;12.50;99.90;;;;;;7418335;19;19919;-80
2023/04/19 02:18:39;;;;;;;11.48;3.10;;;12.50;99.90;;;;;;7420322;19;19915;-80
2023/04/19 02:21:06;;;;;;;6.15;2.53;;;12.40;99.90;;;;;;7420169;19;19919;-80
2023/04/19 02:23:32;;;;;;;6.30;2.40;;;12.40;99.90;;;;;;7418259;19;19926;-80
2023/04/19 02:26:00;;;;;;;8.68;2.15;;;12.40;99.90;;;;;;7417529;19;19938;-79
2023/04/19 02:28:26;;;;;;;6.80;2.47;;;12.40;99.90;;;;;;7413410;19;19931;-79
2023/04/19 02:30:51;;;;;;;5.78;2.72;;;12.40;99.90;;;;;;7416632;19;19911;-80
2023/04/19 02:33:17;;;;;;;6.45;3.03;;;12.50;99.90;;;;;;7416858;19;19938;-79
2023/04/19 02:35:43;;;;;;;7.65;2.78;;;12.50;99.90;;;;;;7414744;19;19922;-80
2023/04/19 02:38:10;;;;;;;6.10;2.20;;;12.40;99.90;;;;;;7417119;19;19919;-79
2023/04/19 02:40:36;;;;;;;7.53;2.60;;;12.40;99.90;;;;;;7417149;19;19916;-79
2023/04/19 02:43:03;;;;;;;6.35;2.47;;;12.30;99.90;;;;;;7418789;19;19915;-79
2023/04/19 02:45:29;;;;;;;9.73;2.90;;;12.40;99.90;;;;;;7413355;19;19923;-80
2023/04/19 02:47:55;;;;;;;6.18;2.75;;;12.40;99.90;;;;;;7419353;19;19929;-80
2023/04/19 02:50:20;;;;;;;4.88;2.28;;;12.40;99.90;;;;;;7397695;19;19926;-80
2023/04/19 02:52:46;;;;;;;6.85;2.60;;;12.50;99.90;;;;;;7419113;19;19919;-81
2023/04/19 02:55:12;;;;;;;9.20;3.60;;;12.50;99.90;;;;;;7419241;19;20374;-80
2023/04/19 02:57:38;;;;;;;8.27;2.67;;;12.60;99.90;;;;;;7418042;19;19918;-80
2023/04/19 03:00:05;;;;;;;9.68;2.55;;;12.60;99.90;;;;;;7395100;19;19914;-80
2023/04/19 03:02:30;;;;;;;;;;;12.50;99.90;;;;;;7420455;19;19917;-79
2023/04/19 03:04:56;;;;;;;7.85;2.55;;;12.40;99.90;;;;;;7417740;19;19919;-80
2023/04/19 03:07:22;;;;;;;5.57;2.55;;;12.30;99.90;;;;;;7414372;19;19961;-79
2023/04/19 03:09:48;;;;;;;7.22;3.10;;;12.20;99.90;;;;;;7418608;19;19948;-80
2023/04/19 03:12:14;;;;;;;7.43;3.33;;;12.20;99.90;;;;;;7412331;19;19911;-79
2023/04/19 03:14:41;;;;;;;9.00;3.30;;;12.20;99.90;;;;;;7415754;19;19938;-78
2023/04/19 03:17:06;;;;;;;7.68;3.22;;;12.20;99.90;;;;;;7416185;19;20543;-79
2023/04/19 03:19:32;;;;;;;6.00;2.40;;;12.30;99.90;;;;;;7418614;19;19991;-80
2023/04/19 03:21:58;;;;;;;7.47;3.05;;;12.40;99.90;;;;;;7418497;19;19930;-80
2023/04/19 03:24:30;;;;;;;7.57;2.95;;;12.40;99.90;;;;;;7387303;19;19979;-79
2023/04/19 03:26:56;;;;;;;5.40;2.22;;;12.30;99.90;;;;;;7416496;19;19923;-80
2023/04/19 03:29:23;;;;;;;4.75;2.20;;;12.30;99.90;;;;;;7415605;19;19939;-80
2023/04/19 03:31:49;;;;;;;6.10;2.20;;;12.30;99.90;;;;;;7417042;19;19922;-80
2023/04/19 03:34:15;;;;;;;8.05;1.83;;;12.30;99.70;;;;;;7415629;19;19936;-80
2023/04/19 03:36:40;;;;;;;5.28;2.13;;;12.30;97.10;;;;;;7416732;19;19903;-79
2023/04/19 03:39:06;;;;;;;9.38;2.45;;;12.30;97.30;;;;;;7415384;19;19914;-79
2023/04/19 03:41:32;;;;;;;5.45;1.75;;;12.30;97.90;;;;;;7414810;19;19913;-80
2023/04/19 03:43:58;;;;;;;6.88;1.92;;;12.30;97.90;;;;;;7415896;19;19918;-79
2023/04/19 03:46:24;;;;;;;7.22;1.90;;;12.30;98.10;;;;;;7411360;19;19926;-80
2023/04/19 03:48:51;;;;;;;4.03;1.50;;;12.30;97.60;;;;;;7414114;19;19914;-79
2023/04/19 03:51:17;;;;;;;7.45;1.90;;;12.30;97.40;;;;;;7414309;19;19915;-79
2023/04/19 03:53:43;;;;;;;5.68;1.60;;;12.40;97.90;;;;;;7415513;19;19933;-79
2023/04/19 03:56:08;;;;;;;7.55;1.80;;;12.30;98.10;;;;;;7415902;19;19922;-80
2023/04/19 03:58:34;;;;;;;5.47;1.63;;;12.40;97.90;;;;;;7415331;19;19918;-80
2023/04/19 04:01:00;;;;;;;5.80;1.50;;;12.40;97.30;;;;;;7420322;19;19919;-80
2023/04/19 04:03:26;;;;;;;4.50;1.60;;;12.50;96.80;;;;;;7414543;19;20501;-80
2023/04/19 04:05:52;;;;;;;5.90;1.40;;;12.40;96.70;;;;;;7415728;19;19922;-80
2023/04/19 04:08:17;;;;;;;7.28;1.73;;;12.40;96.60;;;;;;7412978;19;19933;-81
2023/04/19 04:10:43;;;;;;;4.65;1.30;;;12.40;96.70;;;;;;7425200;19;19926;-80
2023/04/19 04:13:09;;;;;;;6.55;2.20;;;12.50;96.30;;;;;;7420098;19;19975;-80
2023/04/19 04:15:35;;;;;;;6.45;2.05;;;12.40;96.30;;;;;;7420554;19;19914;-80
2023/04/19 04:18:00;;;;;;;6.10;2.03;;;12.50;96.50;;;;;;7424530;19;20319;-80
2023/04/19 04:20:26;;;;;;;4.65;1.60;;;12.40;96.60;;;;;;7423264;19;19921;-80
2023/04/19 04:22:52;;;;;;;6.32;1.63;;;12.50;96.30;;;;;;7423209;19;20319;-79
2023/04/19 04:25:18;;;;;;;5.65;1.52;;;12.40;96.00;;;;;;7417816;19;19918;-80
2023/04/19 04:27:44;;;;;;;7.82;1.98;;;12.40;95.40;;;;;;7420721;19;20254;-79
2023/04/19 04:30:11;;;;;;;4.90;1.40;;;12.60;94.80;;;;;;7417531;19;19921;-80
2023/04/19 04:32:39;;;;;;;5.75;1.65;;;12.50;94.80;;;;;;7416796;19;19923;-80
2023/04/19 04:35:06;;;;;;;4.97;1.67;;;12.40;94.80;;;;;;7416293;19;19918;-79
2023/04/19 04:37:33;;;;;;;4.45;1.60;;;12.30;94.70;;;;;;7424615;19;20283;-80
2023/04/19 04:40:00;;;;;;;4.88;1.50;;;12.20;94.50;;;;;;7421225;19;20018;-79
2023/04/19 04:42:26;;;;;;;5.22;1.55;;;12.20;94.50;;;;;;7422397;19;19925;-80
2023/04/19 04:44:52;;;;;;;5.50;1.33;;;12.20;94.10;;;;;;7418325;19;19965;-81
2023/04/19 04:47:20;;;;;;;5.50;1.73;;;12.20;93.10;;;;;;7420610;19;19918;-80
2023/04/19 04:49:45;;;;;;;3.78;1.48;;;12.20;93.50;;;;;;7399008;19;19922;-81
2023/04/19 04:52:11;;;;;;;4.88;1.73;;;12.20;93.30;;;;;;7416545;19;19966;-80
2023/04/19 04:54:37;;;;;;;4.72;1.20;;;12.20;93.50;;;;;;7419559;19;19914;-79
2023/04/19 04:57:03;;;;;;;4.65;1.70;;;12.20;93.40;;;;;;7418835;19;19915;-81
2023/04/19 04:59:29;;;;;;;5.78;1.90;;;12.20;93.30;;;;;;7421989;19;19929;-81
2023/04/19 05:01:54;;;;;;;5.18;1.60;;;12.10;93.10;;;;;;7379356;19;19947;-80
2023/04/19 05:04:21;;;;;;;3.78;1.40;;;12.10;93.60;;;;;;7418993;19;19984;-80
2023/04/19 05:06:47;;;;;;;3.53;1.40;;;12.10;94.00;;;;;;7418843;19;19922;-80
2023/04/19 05:09:13;;;;;;;3.88;1.30;;;12.20;92.00;;;;;;7420693;19;19930;-79
2023/04/19 05:11:40;;;;;;;6.10;1.90;;;12.20;91.90;;;;;;7421585;19;19941;-81
2023/04/19 05:14:05;;;;;;;5.85;1.65;;;12.20;92.60;;;;;;7417729;19;19918;-79
2023/04/19 05:16:32;;;;;;;3.72;1.10;;;12.30;93.30;;;;;;7419420;19;19910;-80
2023/04/19 05:18:58;;;;;;;4.75;1.60;;;12.40;91.50;;;;;;7420561;19;19915;-80
2023/04/19 05:21:24;;;;;;;7.85;1.30;;;12.60;91.20;;;;;;7417904;19;19939;-81
2023/04/19 05:23:52;;;;;;;5.55;1.50;;;12.50;91.20;;;;;;7422918;19;19914;-81
2023/04/19 05:26:18;;;;;;;6.20;1.48;;;12.50;91.00;;;;;;7399783;19;19922;-80
2023/04/19 05:28:44;;;;;;;5.88;1.90;;;12.40;91.10;;;;;;7420201;19;19932;-79
2023/04/19 05:31:11;;;;;;;3.53;1.27;;;12.40;91.20;;;;;;7420901;19;19921;-81
2023/04/19 05:33:38;;;;;;;6.07;1.60;;;12.50;90.50;;;;;;7423604;19;19917;-80
2023/04/19 05:36:04;;;;;;;6.22;1.35;;;12.50;90.30;;;;;;7420928;19;19915;-81
2023/04/19 05:38:30;;;;;;;5.45;1.85;;;12.50;90.20;;;;;;7422258;19;19914;-80
2023/04/19 05:40:55;;;;;;;5.05;1.85;;;12.50;90.00;;;;;;7424729;19;19925;-81
2023/04/19 05:43:21;;;;;;;7.30;1.98;;;12.60;90.60;;;;;;7416620;19;20358;-82
2023/04/19 05:45:47;;;;;;;7.10;2.30;;;12.60;91.30;;;;;;7421433;19;19915;-80
2023/04/19 05:48:13;;;;;;;7.45;2.00;;;12.50;91.70;;;;;;7421615;19;19922;-80
2023/04/19 05:50:39;;;;;;;6.30;2.17;;;12.60;92.40;;;;;;7423472;19;19946;-80
2023/04/19 05:53:04;;;;;;;6.95;2.47;;;12.80;92.60;;;;;;7417581;19;19935;-82
2023/04/19 05:55:30;;;;;;;6.55;2.30;;;12.90;92.40;;;;;;7422541;19;19927;-80
2023/04/19 05:57:57;;;;;;;6.53;2.28;;;12.80;91.80;;;;;;7425109;19;19932;-80
2023/04/19 06:00:23;;;;;;;;;;;12.90;91.40;;;;;;7420744;19;19938;-82
2023/04/19 06:02:50;;;;;;;6.18;2.42;;;13.00;91.40;;;;;;7422176;19;19939;-81
2023/04/19 06:05:16;;;;;;;5.70;2.45;;;13.00;91.20;;;;;;7418873;19;20003;-80
2023/04/19 06:07:42;;;;;;;5.32;2.20;;;13.00;90.80;;;;;;7420262;19;19923;-80
2023/04/19 06:10:08;;;;;;;5.07;2.08;;;13.00;90.50;;;;;;7418683;19;19974;-80
2023/04/19 06:12:34;;;;;;;5.13;2.05;;;13.20;89.90;;;;;;7421223;19;19915;-80
2023/04/19 06:15:00;;;;;;;5.78;2.00;;;13.20;89.30;;;;;;7417950;19;19921;-80
2023/04/19 06:17:26;;;;;;;6.47;2.22;;;13.30;88.70;;;;;;7421507;19;19914;-80
2023/04/19 06:19:55;;;;;;;9.55;2.45;;;13.40;88.20;;;;;;7424159;19;20497;-82
2023/04/19 06:22:20;;;;;;;6.97;2.05;;;13.40;87.80;;;;;;7417455;19;19926;-80
2023/04/19 06:24:47;;;;;;;6.28;2.10;;;13.50;87.40;;;;;;7421879;19;19939;-80
2023/04/19 06:27:15;;;;;;;15.15;4.00;;;13.60;87.30;;;;;;7419727;19;19917;-80
2023/04/19 06:29:41;;;;;;;9.52;2.55;;;13.60;86.50;;;;;;7422259;19;19946;-80
2023/04/19 06:32:08;;;;;;;8.48;3.03;;;13.90;85.90;;;;;;7420079;19;19930;-80
2023/04/19 06:34:34;;;;;;;;;;;14.00;86.80;;;;;;7392719;19;19922;-80
2023/04/19 06:37:00;;;;;;;15.20;2.80;;;14.10;85.60;;;;;;7424342;19;19918;-80
2023/04/19 06:39:26;;;;;;;6.93;2.90;;;14.20;85.60;;;;;;7419891;19;19914;-81
2023/04/19 06:41:52;;;;;;;8.90;2.10;;;14.30;85.00;;;;;;7386079;19;19949;-80
2023/04/19 06:44:19;;;;;;;9.00;2.70;;;14.30;83.80;;;;;;7387218;19;19922;-82
2023/04/19 06:46:44;;;;;;;7.18;2.08;;;14.40;83.50;;;;;;7419191;19;20335;-80
2023/04/19 06:49:10;;;;;;;10.60;2.33;;;14.40;82.30;;;;;;7419250;19;19938;-81
2023/04/19 06:51:37;;;;;;;5.10;1.95;;;14.40;81.80;;;;;;7420915;19;19918;-80
2023/04/19 06:54:03;;;;;;;5.53;2.00;;;14.50;81.00;;;;;;7418679;19;19914;-81
2023/04/19 06:56:44;;;;;;;8.48;2.17;;;14.60;80.60;;;;;;7418719;19;19927;-80
2023/04/19 06:59:16;;;;;;;7.63;2.42;;;14.70;80.10;;;;;;7419697;19;19921;-81
2023/04/19 07:01:43;;;;;;;10.13;2.95;;;14.90;78.30;;;;;;7415800;19;19922;-80
2023/04/19 07:04:09;;;;;;;6.13;2.25;;;15.00;78.50;;;;;;7411614;19;19930;-72
2023/04/19 07:06:36;;;;;;;6.22;2.17;;;15.00;78.40;;;;;;7399706;19;19937;-75
2023/04/19 07:09:03;;;;;;;8.10;2.35;;;15.00;78.50;;;;;;7391650;19;19919;-73
2023/04/19 07:11:29;;;;;;;9.48;3.40;;;15.10;78.00;;;;;;7400369;19;19921;-72
2023/04/19 07:13:55;;;;;;;9.18;3.17;;;15.10;79.20;;;;;;7395760;19;19906;-72
2023/04/19 07:16:21;;;;;;;8.15;3.55;;;15.20;79.80;;;;;;7398340;19;20406;-73
2023/04/19 07:18:47;;;;;;;12.05;3.80;;;15.20;78.60;;;;;;7402222;19;19926;-73
2023/04/19 07:21:13;;;;;;;8.68;3.75;;;15.30;76.80;;;;;;7399580;19;19918;-73
2023/04/19 07:23:39;;;;;;;7.43;3.40;;;15.40;77.50;;;;;;7376888;19;19921;-72
2023/04/19 07:26:04;;;;;;;9.15;4.57;;;15.40;77.40;;;;;;7384894;19;19922;-73
2023/04/19 07:28:30;;;;;;;8.80;4.00;;;15.50;78.40;;;;;;7397714;19;20014;-73
2023/04/19 07:30:56;;;;;;;13.50;5.55;;;15.50;76.80;;;;;;7388769;19;19911;-73
2023/04/19 07:33:26;;;;;;;14.15;5.53;;;15.50;78.70;;;;;;7389782;19;19944;-73
2023/04/19 07:35:52;;;;;;;19.63;6.60;;;15.60;79.50;;;;;;7400803;19;20569;-73
2023/04/19 07:38:18;;;;;;;16.75;6.55;;;15.70;80.50;;;;;;7396897;19;19910;-73
2023/04/19 07:40:45;;;;;;;12.60;5.20;;;15.70;79.80;;;;;;7397839;19;19918;-72
2023/04/19 07:43:10;;;;;;;16.30;6.20;;;15.80;78.20;;;;;;7390622;19;19918;-72
2023/04/19 07:45:36;;;;;;;11.57;7.32;;;15.90;79.30;;;;;;7396171;19;20232;-73
2023/04/19 07:48:02;;;;;;;15.95;7.68;;;16.00;78.80;;;;;;7398332;19;20248;-73
2023/04/19 07:50:28;;;;;;;16.67;5.72;;;16.00;79.30;;;;;;7401359;19;19923;-74
2023/04/19 07:52:55;;;;;;;12.18;4.50;;;16.00;77.80;;;;;;7397906;19;19921;-73
2023/04/19 07:55:21;;;;;;;12.57;5.28;;;16.10;75.00;;;;;;7391213;19;19948;-73
2023/04/19 07:57:47;;;;;;;10.40;4.75;;;16.00;77.30;;;;;;7401510;19;19911;-73
2023/04/19 08:00:14;;;;;;;10.60;4.78;;;15.90;75.70;;;;;;7395392;19;19918;-73
2023/04/19 08:02:44;;;;;;;;;;;16.00;75.30;;;;;;7393580;19;19910;-73
2023/04/19 08:05:11;;;;;;;11.65;4.40;;;16.10;75.20;;;;;;7394735;19;19915;-74
2023/04/19 08:07:38;;;;;;;;;;;16.10;75.30;;;;;;7400276;19;19922;-72
2023/04/19 08:10:08;;;;;;;7.68;3.63;;;15.90;75.80;;;;;;7398449;19;19930;-73
2023/04/19 08:12:34;;;;;;;10.75;3.78;;;16.10;73.70;;;;;;7391978;19;20369;-72
2023/04/19 08:14:59;;;;;;;4.80;2.17;;;16.00;72.80;;;;;;7399468;19;19911;-72
2023/04/19 08:17:26;;;;;;;5.25;2.60;;;16.00;67.60;;;;;;7399629;19;20263;-73
2023/04/19 08:19:52;;;;;;;4.40;1.52;;;16.20;65.80;;;;;;7390805;19;19942;-73
2023/04/19 08:22:19;;;;;;;4.97;2.20;;;16.30;64.50;;;;;;7388837;19;19910;-72
2023/04/19 08:24:46;;;;;;;7.30;2.67;;;16.40;66.70;;;;;;7390869;19;19939;-72
2023/04/19 08:27:11;;;;;;;5.93;1.98;;;16.40;67.00;;;;;;7355160;19;19906;-72
2023/04/19 08:29:37;;;;;;;7.20;2.78;;;16.50;63.80;;;;;;7397371;19;20405;-73
2023/04/19 08:32:04;;;;;;;6.45;2.30;;;16.50;65.70;;;;;;7392844;19;19915;-73
2023/04/19 08:34:30;;;;;;;8.35;2.50;;;16.60;64.90;;;;;;7389029;19;20007;-74
2023/04/19 08:36:56;;;;;;;8.30;2.40;;;17.90;61.40;;;;;;7399114;19;19934;-72
2023/04/19 08:39:22;;;;;;;5.57;1.83;;;19.20;60.10;;;;;;7360960;19;19953;-73
2023/04/19 08:41:49;;;;;;;4.60;1.80;;;20.40;56.50;;;;;;7389147;19;19906;-72
2023/04/19 08:44:19;;;;;;;5.22;2.10;;;20.00;53.30;;;;;;7387724;19;19931;-71
2023/04/19 08:46:47;;;;;;;7.75;2.35;;;20.70;53.80;;;;;;7396051;19;19925;-72
2023/04/19 08:49:13;;;;;;;7.35;2.50;;;20.80;52.20;;;;;;7363992;19;19914;-71
2023/04/19 08:51:40;;;;;;;5.80;1.85;;;21.50;51.60;;;;;;7396607;19;19911;-72
2023/04/19 08:54:07;;;;;;;4.07;1.77;;;21.80;50.00;;;;;;7391163;19;19930;-72
2023/04/19 08:56:32;;;;;;;;;;;21.20;50.00;;;;;;7395611;19;24517;-72
2023/04/19 08:58:58;;;;;;;5.72;1.80;;;21.10;51.00;;;;;;7401011;19;19919;-72
2023/04/19 09:01:24;;;;;;;5.60;2.10;;;21.40;50.20;;;;;;7400621;19;19980;-72
2023/04/19 09:03:50;;;;;;;4.68;1.73;;;21.60;50.30;;;;;;7368744;19;19922;-72
2023/04/19 09:06:15;;;;;;;6.25;2.78;;;22.00;49.50;;;;;;7398468;19;20300;-71
2023/04/19 09:08:41;;;;;;;3.92;2.22;;;21.20;50.10;;;;;;7400141;19;19953;-71
2023/04/19 09:11:08;;;;;;;3.97;2.03;;;20.40;50.80;;;;;;7394508;19;19918;-72
2023/04/19 09:13:39;;;;;;;7.00;2.10;;;20.90;51.10;;;;;;7398425;19;19918;-72
2023/04/19 09:16:06;;;;;;;5.03;2.20;;;20.90;51.40;;;;;;7393690;19;20335;-72
2023/04/19 09:18:51;;;;;;;5.75;1.90;;;21.30;50.20;;;;;;7402376;19;19990;-71
2023/04/19 09:21:31;;;;;;;5.15;2.00;;;22.50;49.50;;;;;;7402676;19;20019;-71
2023/04/19 09:23:57;;;;;;;5.35;2.80;;;21.10;49.90;;;;;;7398719;19;20247;-71
2023/04/19 09:26:23;;;;;;;5.40;1.77;;;20.30;50.60;;;;;;7403498;19;19934;-72
2023/04/19 09:29:01;;;;;;;7.40;2.10;;;21.00;50.50;;;;;;7404901;19;19938;-72
2023/04/19 09:31:28;;;;;;;9.20;3.20;;;21.20;49.60;;;;;;7402011;19;20268;-72
2023/04/19 09:33:54;;;;;;;7.32;2.38;;;21.70;49.30;;;;;;7403648;19;20323;-72
2023/04/19 09:36:28;;;;;;;5.95;2.28;;;23.00;48.30;;;;;;7401505;19;20692;-71
2023/04/19 09:38:53;;;;;;;7.78;2.28;;;22.80;48.00;;;;;;7401460;19;19918;-71
2023/04/19 09:41:19;;;;;;;8.40;2.22;;;23.10;47.80;;;;;;7401025;19;20587;-71
2023/04/19 09:43:45;;;;;;;12.70;4.07;;;23.10;47.20;;;;;;7403938;19;20319;-72
2023/04/19 09:46:31;;;;;;;4.78;2.35;;;21.40;48.00;;;;;;7403018;19;19918;-71
2023/04/19 09:49:25;;;;;;;6.53;2.40;;;20.70;51.70;;;;;;7401200;19;20382;-71
2023/04/19 09:51:52;;;;;;;6.30;2.22;;;21.70;50.80;;;;;;7403445;19;19987;-72
2023/04/19 09:54:21;;;;;;;5.93;2.67;;;22.30;50.60;;;;;;7401147;19;20024;-71
2023/04/19 09:56:48;;;;;;;6.80;2.25;;;21.90;51.00;;;;;;7401998;19;19922;-71
2023/04/19 09:59:13;;;;;;;6.22;2.42;;;22.70;50.20;;;;;;7399141;19;19922;-71
2023/04/19 10:01:43;;;;;;;6.35;2.42;;;22.70;50.20;;;;;;7397955;19;19931;-71
2023/04/19 10:04:11;;;;;;;7.13;2.08;;;22.00;49.40;;;;;;7400217;19;20363;-71
2023/04/19 10:06:39;;;;;;;5.38;2.10;;;22.90;49.00;;;;;;7401649;19;20353;-71
2023/04/19 10:09:05;;;;;;;6.30;2.17;;;23.30;48.20;;;;;;7401671;19;19923;-72
2023/04/19 10:11:39;;;;;;;4.50;2.00;;;23.50;47.80;;;;;;7392372;19;20681;-72
2023/04/19 10:14:07;;;;;;;4.22;1.85;;;22.20;47.50;;;;;;7400303;19;19930;-72
2023/04/19 10:16:35;;;;;;;6.25;1.90;;;22.10;48.60;;;;;;7401596;19;20378;-71
2023/04/19 10:19:05;;;;;;;6.03;1.80;;;21.70;48.40;;;;;;7403575;19;19994;-71
2023/04/19 10:21:32;;;;;;;5.25;1.75;;;21.10;48.70;;;;;;7397108;19;19926;-70
2023/04/19 10:23:59;;;;;;;4.03;2.17;;;20.50;50.10;;;;;;7401333;19;19942;-71
2023/04/19 10:26:25;;;;;;;5.38;1.88;;;19.60;51.20;;;;;;7398696;19;19923;-70
2023/04/19 10:28:54;;;;;;;4.75;1.88;;;19.80;51.30;;;;;;7403309;19;20019;-71
2023/04/19 10:31:22;;;;;;;5.70;1.73;;;19.90;51.30;;;;;;7396379;19;20761;-71
2023/04/19 10:33:50;;;;;;;3.45;1.27;;;19.60;51.60;;;;;;7375988;19;19982;-70
2023/04/19 10:36:17;;;;;;;7.18;1.83;;;19.80;51.30;;;;;;7396890;19;19923;-72
2023/04/19 10:38:50;;;;;;;4.70;1.58;;;19.90;51.10;;;;;;7395558;19;19914;-71
2023/04/19 10:41:18;;;;;;;4.68;1.60;;;19.50;51.50;;;;;;7391715;19;20342;-70
2023/04/19 10:43:45;;;;;;;5.60;1.30;;;19.70;51.70;;;;;;7393483;19;19922;-70
2023/04/19 10:46:21;;;;;;;3.75;1.75;;;19.00;52.40;;;;;;7394625;19;19955;-71
2023/04/19 10:48:57;;;;;;;3.08;1.40;;;19.40;52.10;;;;;;7397673;19;19966;-71
2023/04/19 10:51:35;;;;;;;5.30;1.98;;;20.10;51.50;;;;;;7390648;19;21795;-71
2023/04/19 10:54:05;;;;;;;4.55;1.52;;;19.80;51.30;;;;;;7397749;19;19946;-70
2023/04/19 10:56:34;;;;;;;4.38;1.90;;;20.30;51.10;;;;;;7392008;19;20279;-71
2023/04/19 10:59:20;;;;;;;4.13;1.73;;;20.50;50.40;;;;;;7386584;19;19926;-71
2023/04/19 11:01:57;;;;;;;4.35;1.65;;;20.10;50.90;;;;;;7351985;19;20732;-74
2023/04/19 11:04:31;;;;;;;3.97;1.52;;;19.80;51.10;;;;;;7390896;19;19960;-75
2023/04/19 11:07:06;;;;;;;4.43;1.73;;;19.60;51.40;;;;;;7397014;19;19921;-71
2023/04/19 11:09:37;;;;;;;7.35;2.22;;;20.40;51.00;;;;;;7392020;19;20357;-71
2023/04/19 11:12:07;;;;;;;3.53;1.52;;;20.50;50.50;;;;;;7392758;19;19990;-74
2023/04/19 11:14:43;;;;;;;5.55;1.73;;;20.10;50.90;;;;;;7398585;19;19923;-72
2023/04/19 11:17:38;;;;;;;4.47;1.65;;;20.30;50.60;;;;;;7389233;19;19915;-70
2023/04/19 11:20:09;;;;;;;5.18;1.73;;;20.80;51.40;;;;;;7390998;19;19923;-72
2023/04/19 11:22:37;;;;;;;6.30;2.03;;;22.00;50.00;;;;;;7393246;19;19955;-71
2023/04/19 11:25:06;;;;;;;4.15;2.10;;;20.50;51.40;;;;;;7393372;19;19921;-72
2023/04/19 11:27:33;;;;;;;4.03;1.77;;;20.70;50.50;;;;;;7396004;19;19935;-72
2023/04/19 11:30:10;;;;;;;4.32;2.00;;;21.30;50.70;;;;;;7394293;19;19911;-71
2023/04/19 11:32:36;;;;;;;5.40;1.75;;;21.20;49.30;;;;;;7397644;19;19919;-72
2023/04/19 11:35:08;;;;;;;5.30;2.22;;;21.70;49.70;;;;;;7391829;19;19915;-73
2023/04/19 11:37:35;;;;;;;5.45;1.92;;;21.80;50.10;;;;;;7399308;19;19915;-72
2023/04/19 11:40:02;;;;;;;7.13;1.98;;;22.00;50.20;;;;;;7388049;19;19910;-72
2023/04/19 11:42:27;;;;;;;4.97;1.85;;;21.80;50.70;;;;;;7387433;19;19918;-71
2023/04/19 11:44:56;;;;;;;6.10;2.55;;;21.10;50.60;;;;;;7385743;19;19921;-72
2023/04/19 11:47:22;;;;;;;8.88;3.67;;;20.50;52.20;;;;;;7394940;19;20239;-71
2023/04/19 11:49:48;;;;;;;5.10;2.13;;;20.80;52.30;;;;;;7391527;19;20327;-72
2023/04/19 11:52:23;;;;;;;5.13;2.03;;;21.80;50.30;;;;;;7395184;19;19943;-72
2023/04/19 11:54:52;;;;;;;5.07;1.92;;;22.10;49.90;;;;;;7389156;19;19911;-72
2023/04/19 11:57:30;;;;;;;5.80;1.85;;;22.10;49.90;;;;;;7394691;19;19947;-72
2023/04/19 12:00:10;;;;;;;4.18;1.95;;;22.80;49.10;;;;;;7392938;19;19931;-72
2023/04/19 12:02:51;;;;;;;6.03;2.10;;;21.80;50.50;;;;;;7398931;19;19918;-72
2023/04/19 12:05:17;;;;;;;9.70;2.38;;;22.50;50.50;;;;;;7399883;19;19915;-73
2023/04/19 12:08:03;;;;;;;4.85;2.55;;;21.80;51.70;;;;;;7398246;19;19929;-72
2023/04/19 12:10:30;;;;;;;5.47;2.67;;;22.20;51.70;;;;;;7397992;19;19918;-72
2023/04/19 12:12:56;;;;;;;6.00;2.40;;;21.50;52.30;;;;;;7398200;19;19922;-73
2023/04/19 12:15:23;;;;;;;5.25;2.33;;;22.00;51.80;;;;;;7396897;19;19947;-74
2023/04/19 12:17:59;;;;;;;5.13;2.30;;;21.20;51.60;;;;;;7400738;19;19918;-72
2023/04/19 12:20:48;;;;;;;4.68;1.80;;;22.30;50.30;;;;;;7399451;19;20695;-74
2023/04/19 12:23:15;;;;;;;4.82;2.90;;;22.20;49.80;;;;;;7397687;19;20288;-72
2023/04/19 12:25:42;;;;;;;4.82;1.60;;;21.40;50.90;;;;;;7397641;19;19914;-71
2023/04/19 12:28:08;;;;;;;4.97;2.28;;;22.40;50.00;;;;;;7395301;19;19918;-73
2023/04/19 12:30:37;;;;;;;5.47;2.35;;;22.60;50.30;;;;;;7404211;19;19918;-72
2023/04/19 12:33:03;;;;;;;5.05;2.20;;;22.20;49.60;;;;;;7402036;19;19935;-72
2023/04/19 12:35:29;;;;;;;6.85;2.00;;;21.60;50.20;;;;;;7407284;19;19942;-72
2023/04/19 12:37:57;;;;;;;5.65;2.20;;;21.20;50.10;;;;;;7398167;19;19926;-72
2023/04/19 12:40:24;;;;;;;4.97;2.10;;;21.60;51.10;;;;;;7398527;19;19990;-74
2023/04/19 12:42:52;;;;;;;4.43;2.20;;;22.40;50.20;;;;;;7397143;19;19945;-73
2023/04/19 12:45:19;;;;;;;4.63;2.42;;;22.40;50.20;;;;;;7393755;19;20339;-73
2023/04/19 12:47:49;;;;;;;5.18;2.53;;;21.60;50.90;;;;;;7403611;19;19926;-73
2023/04/19 12:50:15;;;;;;;3.70;2.05;;;21.60;51.10;;;;;;7401958;19;19911;-73